Hauptseite
METAR-TAF:

METAR-TAF

Flughäfen :

Flughafen Linköping

Linköping, Schweden

Breite: 58-24N, Länge: 015-41E, Höhe: 52 m

Beobachtung

Neuester Wetterbericht von vor 42 Minuten, um 17:50 UTC
Wind 9 kt aus Ost
Temperatur 20°C
Luftfeuchtigkeit 60%
Luftdruck 1018 hPa
Sichtweite 10 km oder mehr

METAR: ESSL 231750Z AUTO 10009KT 9999 NCD 20/12 Q1018

Zeit: 20:32 (18:32 UTC)

Prognose

Neuester Wetterbericht von vor 4 Stunden und 2 Minuten, um 14:30 UTC
Gültige Prognose vom 23 um 15 UTC bis 23 um 18 UTC
Wind 11 kt aus Ost, Böen bis zu 22 kt
Sichtweite 10 km oder mehr
keine Wolken unter 1500 m und keine Kumulonimbus oder Gewitterwolken
Wahrscheinlichkeit 40%
vom 23 um 15 UTC bis 23 um 16 UTC
Aufgelockert bewölkt in der Höhe von 6000 ft, Towering cumulus.

TAF: ESSL 231430Z 2315/2318 10011G22KT CAVOK PROB40 2315/2316 SCT060TCU

Wetterbeobachtungen und Prognosen von mehr als 4000 Flughäfen (METAR und TAF Bericht).

Die verfügbaren Stationen werden durch gelbe und rote Markierungen auf der Karte dargestellt.

Führen Sie die Maus auf sie, um den Namen der Station zu sehen.

Darauf klicken, um die Beobachtung von Wetterbeobachtungen und Prognosen zu sehen.

Um die Karte zu ändern : klicken Sie auf den grünen Tasten mit einem schwarzen Kreuz Zum Vergrößern, auf den grünen Button mit einem Gedankenstrich zu verkleinern, oder auf die grünen Pfeile für benachbarte Karten.


METAR-TAF: